Strona główna
METAR-TAF:

METAR-TAF

Lotnisko :

Dakar, Senegal

Port lotniczy Dakar

Szerokość geograficzna: 14-44N, Długość geograficzna: 017-30W, wysokość: 27 m

Aktualna obserwacja pogody

Raport powstał 51 minut temu, godzina 17:00 UTC
Wiatr 18 kt od północno-północny wschód
Temperatura 21°C
Wilgotność 56%
Ciśnienie 1015 hPa
Widzialność: 4000 m
pył

METAR: GOOY 171700Z 02018KT 4000 DU NSC 21/12 Q1015

czas: 17:51 (17:51 UTC)

Prognoza

Raport powstał 21 minut temu, godzina 17:30 UTC
Prognoza ważna od 17 godzina 18 UTC do 18 godzina 24 UTC
Wiatr 18 kt od północno-północny wschód
Widzialność: 4500 m
pył

TAF: GOOY 171730Z 1718/1824 02018KT 4500 DU NSC

Obserwacja i prognoza pogody dla ponad 4000 lotnisk (raport METAR i TAF).

Dostępne stacje oznaczono żółtymi i czerwonymi punktami na mapie.

Najedź kursorem aby zobaczyć nazwę stacji.

Kliknij aby zobaczyć obserwacje i prognozy pogody.

Aby zmienić mapę: kliknij na zielony przycisk z czarnym krzyżykiem, aby powiększyć; na zielony przycisk z myślnikiem, aby pomniejszyć; na zielone strzałki, aby przejść do map sąsiednich.


METAR-TAF: